createdAt,value
2017-11-22T00:00:00.298Z,11.70
2017-11-22T00:02:41.256Z,10.43
2017-11-22T00:05:09.663Z,10.33
2017-11-22T00:07:36.662Z,11.00
2017-11-22T00:10:05.311Z,9.97
2017-11-22T00:12:32.355Z,10.07
2017-11-22T00:14:59.220Z,10.67
2017-11-22T00:17:26.210Z,9.23
2017-11-22T00:19:53.100Z,8.97
2017-11-22T00:22:21.613Z,9.53
2017-11-22T00:24:49.245Z,9.23
2017-11-22T00:27:16.114Z,10.20
2017-11-22T00:29:43.077Z,9.83
2017-11-22T00:32:11.109Z,9.77
2017-11-22T00:34:41.439Z,9.30
2017-11-22T00:37:08.673Z,9.20
2017-11-22T00:39:35.638Z,9.97
2017-11-22T00:42:02.728Z,10.10
2017-11-22T00:44:30.724Z,10.03
2017-11-22T00:46:58.240Z,10.03
2017-11-22T00:49:25.223Z,10.60
2017-11-22T00:51:52.215Z,8.33
2017-11-22T00:54:19.141Z,11.50
2017-11-22T00:56:46.084Z,10.10
2017-11-22T00:59:12.960Z,9.60
2017-11-22T01:01:39.937Z,9.87
2017-11-22T01:04:07.553Z,10.30
2017-11-22T01:06:34.506Z,9.03
2017-11-22T01:09:01.418Z,10.20
2017-11-22T01:11:28.377Z,9.50
2017-11-22T01:13:55.269Z,9.60
2017-11-22T01:16:22.315Z,9.77
2017-11-22T01:18:50.065Z,9.80
2017-11-22T01:21:18.056Z,9.13
2017-11-22T01:23:46.562Z,8.57
2017-11-22T01:26:13.771Z,10.07
2017-11-22T01:28:42.426Z,10.37
2017-11-22T01:31:09.690Z,9.63
2017-11-22T01:33:36.876Z,9.80
2017-11-22T01:36:05.913Z,9.90
2017-11-22T01:38:33.333Z,9.17
2017-11-22T01:41:01.037Z,10.50
2017-11-22T01:43:28.256Z,9.33
2017-11-22T01:45:55.626Z,9.23
2017-11-22T01:48:23.240Z,9.90
2017-11-22T01:50:52.670Z,10.17
2017-11-22T01:53:19.828Z,9.53
2017-11-22T01:55:50.340Z,8.80
2017-11-22T01:58:17.274Z,9.43
2017-11-22T02:00:55.142Z,8.93
2017-11-22T02:03:25.606Z,9.37
2017-11-22T02:05:55.292Z,10.80
2017-11-22T02:08:22.280Z,9.00
2017-11-22T02:10:49.294Z,9.37
2017-11-22T02:13:16.155Z,9.90
2017-11-22T02:15:43.079Z,11.73
2017-11-22T02:18:09.948Z,9.63
2017-11-22T02:20:36.913Z,10.13
2017-11-22T02:23:04.524Z,8.83
2017-11-22T02:25:31.447Z,8.87
2017-11-22T02:27:58.347Z,9.13
2017-11-22T02:30:25.288Z,9.50
2017-11-22T02:32:52.315Z,9.90
2017-11-22T02:35:19.294Z,9.57
2017-11-22T02:37:46.225Z,9.40
2017-11-22T02:40:13.229Z,9.37
2017-11-22T02:42:40.223Z,9.10
2017-11-22T02:45:07.165Z,8.87
2017-11-22T02:47:34.219Z,8.87
2017-11-22T02:50:01.167Z,9.57
2017-11-22T02:52:28.277Z,9.70
2017-11-22T02:54:55.341Z,9.30
2017-11-22T02:57:22.425Z,9.97
2017-11-22T02:59:49.503Z,9.47
2017-11-22T03:02:17.512Z,9.83
2017-11-22T03:04:44.565Z,10.37
2017-11-22T03:07:11.690Z,9.20
2017-11-22T03:09:38.736Z,9.60
2017-11-22T03:12:06.005Z,9.97
2017-11-22T03:14:32.952Z,8.33
2017-11-22T03:17:00.981Z,8.20
2017-11-22T03:19:28.731Z,10.00
2017-11-22T03:21:56.865Z,11.03
2017-11-22T03:24:24.122Z,9.93
2017-11-22T03:26:52.498Z,9.57
2017-11-22T03:29:21.764Z,9.03
2017-11-22T03:31:49.216Z,9.47
2017-11-22T03:34:17.625Z,8.83
2017-11-22T03:36:46.074Z,9.97
2017-11-22T03:39:13.911Z,7.90
2017-11-22T03:41:40.869Z,8.50
2017-11-22T03:44:07.981Z,10.73
2017-11-22T03:46:35.029Z,8.80
2017-11-22T03:49:02.208Z,10.00
2017-11-22T03:51:35.214Z,9.17
2017-11-22T03:54:02.368Z,11.17
2017-11-22T03:56:29.349Z,10.53
2017-11-22T03:58:56.541Z,12.40
2017-11-22T04:01:23.631Z,11.50
2017-11-22T04:03:50.678Z,12.30
2017-11-22T04:06:17.746Z,12.87
2017-11-22T04:08:44.786Z,13.67
2017-11-22T04:11:11.760Z,12.87
2017-11-22T04:13:39.013Z,13.20
2017-11-22T04:16:06.604Z,12.53
2017-11-22T04:18:34.229Z,13.53
2017-11-22T04:21:01.110Z,13.47
2017-11-22T04:23:29.416Z,14.60
2017-11-22T04:25:56.598Z,13.57
2017-11-22T04:28:23.693Z,13.77
2017-11-22T04:30:50.720Z,13.80
2017-11-22T04:33:17.707Z,13.07
2017-11-22T04:35:44.986Z,13.60
2017-11-22T04:38:12.961Z,13.00
2017-11-22T04:40:43.371Z,15.60
2017-11-22T04:43:13.797Z,13.53
2017-11-22T04:45:42.552Z,13.47
2017-11-22T04:48:13.169Z,13.20
2017-11-22T04:50:40.540Z,12.87
2017-11-22T04:53:07.480Z,13.60
2017-11-22T04:55:34.888Z,13.43
2017-11-22T04:58:03.825Z,13.10
2017-11-22T05:00:32.808Z,13.27
2017-11-22T05:03:02.163Z,13.30
2017-11-22T05:05:29.185Z,13.13
2017-11-22T05:07:56.560Z,13.80
2017-11-22T05:10:23.614Z,12.70
2017-11-22T05:12:51.085Z,13.97
2017-11-22T05:15:18.548Z,12.07
2017-11-22T05:17:45.709Z,12.77
2017-11-22T05:20:16.150Z,12.73
2017-11-22T05:22:43.894Z,11.27
2017-11-22T05:25:10.887Z,11.77
2017-11-22T05:27:41.197Z,11.20
2017-11-22T05:30:21.714Z,11.67
2017-11-22T05:32:50.344Z,13.07
2017-11-22T05:35:26.872Z,11.67
2017-11-22T05:38:05.965Z,12.23
2017-11-22T05:40:44.470Z,11.63
2017-11-22T05:43:16.789Z,12.50
2017-11-22T05:45:45.427Z,12.60
2017-11-22T05:48:14.794Z,13.00
2017-11-22T05:50:49.235Z,12.40
2017-11-22T05:53:25.135Z,13.37
2017-11-22T05:55:53.984Z,12.37
2017-11-22T05:58:21.810Z,13.50
2017-11-22T06:01:05.790Z,13.90
2017-11-22T06:03:35.570Z,13.23
2017-11-22T06:06:10.479Z,14.37
2017-11-22T06:08:48.373Z,12.33
2017-11-22T06:11:25.123Z,13.77
2017-11-22T06:14:01.446Z,13.73
2017-11-22T06:16:33.047Z,12.40
2017-11-22T06:19:08.529Z,12.60
2017-11-22T06:21:44.573Z,13.90
2017-11-22T06:24:16.493Z,13.63
2017-11-22T06:26:50.277Z,11.47
2017-11-22T06:32:08.127Z,14.03
2017-11-22T06:34:36.072Z,13.57
2017-11-22T06:37:12.945Z,14.03
2017-11-22T06:39:43.371Z,13.20
2017-11-22T06:42:11.629Z,11.93
2017-11-22T06:44:43.013Z,11.80
2017-11-22T06:47:15.936Z,12.87
2017-11-22T06:49:51.552Z,12.70
2017-11-22T06:52:23.301Z,14.13
2017-11-22T06:54:51.180Z,12.10
2017-11-22T06:57:24.709Z,13.97
2017-11-22T07:00:02.319Z,13.47
2017-11-22T07:02:43.097Z,13.00
2017-11-22T07:05:12.408Z,11.97
2017-11-22T07:07:41.438Z,12.70
2017-11-22T07:10:08.330Z,13.00
2017-11-22T07:12:35.273Z,14.30
2017-11-22T07:15:03.329Z,13.63
2017-11-22T07:17:33.998Z,12.70
2017-11-22T07:20:02.127Z,13.03
2017-11-22T07:22:38.518Z,12.57
2017-11-22T07:25:05.515Z,13.23
2017-11-22T07:27:32.425Z,13.57
2017-11-22T07:29:59.353Z,13.80
2017-11-22T07:32:26.451Z,12.47
2017-11-22T07:34:53.392Z,12.90
2017-11-22T07:37:27.920Z,13.40
2017-11-22T07:39:55.338Z,13.40
2017-11-22T07:42:25.607Z,12.80
2017-11-22T07:45:02.943Z,13.20
2017-11-22T07:47:31.275Z,12.63
2017-11-22T07:50:01.569Z,12.97
2017-11-22T07:55:17.499Z,13.10
2017-11-22T07:57:52.095Z,12.37
2017-11-22T08:00:31.759Z,12.40
2017-11-22T08:03:12.859Z,12.90
2017-11-22T08:05:50.638Z,11.53
2017-11-22T08:08:29.439Z,11.97
2017-11-22T08:11:06.795Z,12.20
2017-11-22T08:13:46.969Z,11.43
2017-11-22T08:16:21.963Z,12.50
2017-11-22T08:19:01.688Z,12.00
2017-11-22T08:21:44.096Z,11.87
2017-11-22T08:24:25.443Z,14.20
2017-11-22T08:27:02.074Z,13.53
2017-11-22T08:29:39.258Z,13.27
2017-11-22T08:32:18.587Z,13.60
2017-11-22T08:34:58.438Z,14.10
2017-11-22T08:37:26.317Z,14.37
2017-11-22T08:39:53.281Z,13.97
2017-11-22T08:42:26.243Z,13.47
2017-11-22T08:44:53.191Z,12.63
2017-11-22T08:47:20.838Z,13.60
2017-11-22T08:49:47.817Z,14.40
2017-11-22T08:52:19.781Z,14.53
2017-11-22T08:54:53.589Z,14.03
2017-11-22T08:57:27.992Z,20.63
2017-11-22T09:00:02.190Z,14.40
2017-11-22T09:02:52.273Z,13.23
2017-11-22T09:05:21.240Z,12.33
2017-11-22T09:07:50.212Z,14.10
2017-11-22T09:10:26.116Z,12.57
2017-11-22T09:12:56.677Z,11.40
2017-11-22T09:15:26.823Z,12.73
2017-11-22T09:17:55.866Z,11.17
2017-11-22T09:20:23.807Z,12.00
2017-11-22T09:22:50.688Z,12.57
2017-11-22T09:25:17.637Z,11.83
2017-11-22T09:27:50.519Z,11.43
2017-11-22T09:30:17.469Z,10.70
2017-11-22T09:32:44.559Z,11.53
2017-11-22T09:35:15.468Z,10.80
2017-11-22T09:37:43.079Z,10.30
2017-11-22T09:40:10.058Z,10.50
2017-11-22T09:42:38.809Z,11.50
2017-11-22T09:45:05.818Z,11.00
2017-11-22T09:47:32.692Z,10.80
2017-11-22T09:49:59.654Z,10.90
2017-11-22T09:52:26.620Z,11.67
2017-11-22T09:54:54.066Z,12.37
2017-11-22T09:57:21.514Z,11.37
2017-11-22T09:59:48.473Z,11.97
2017-11-22T10:02:16.533Z,11.80
2017-11-22T10:04:43.394Z,11.27
2017-11-22T10:07:11.681Z,11.60
2017-11-22T10:09:38.556Z,11.00
2017-11-22T10:12:08.127Z,10.17
2017-11-22T10:14:35.004Z,10.07
2017-11-22T10:17:08.589Z,10.80
2017-11-22T10:19:43.578Z,11.70
2017-11-22T10:22:10.609Z,11.87
2017-11-22T10:24:43.650Z,10.83
2017-11-22T10:27:30.277Z,10.83
2017-11-22T10:30:04.444Z,11.80
2017-11-22T10:32:32.568Z,11.73
2017-11-22T10:35:00.989Z,11.57
2017-11-22T10:37:28.390Z,10.17
2017-11-22T10:39:59.666Z,11.60
2017-11-22T10:42:27.445Z,11.83
2017-11-22T10:44:54.382Z,11.47
2017-11-22T10:47:22.141Z,11.27
2017-11-22T10:49:50.110Z,13.13
2017-11-22T10:52:17.385Z,11.17
2017-11-22T10:54:44.682Z,11.60
2017-11-22T10:57:12.093Z,10.47
2017-11-22T10:59:39.362Z,10.87
2017-11-22T11:02:06.452Z,10.30
2017-11-22T11:04:33.919Z,11.50
2017-11-22T11:07:01.175Z,10.87
2017-11-22T11:09:28.207Z,11.43
2017-11-22T11:11:55.271Z,11.07
2017-11-22T11:14:23.230Z,10.90
2017-11-22T11:16:50.289Z,11.00
2017-11-22T11:19:18.361Z,10.97
2017-11-22T11:21:45.542Z,10.67
2017-11-22T11:24:12.802Z,10.53
2017-11-22T11:26:39.999Z,10.27
2017-11-22T11:29:06.894Z,8.97
2017-11-22T11:31:34.316Z,10.47
2017-11-22T11:34:01.790Z,10.50
2017-11-22T11:36:32.069Z,10.00
2017-11-22T11:38:59.467Z,10.50
2017-11-22T11:41:26.794Z,9.80
2017-11-22T11:43:54.134Z,10.83
2017-11-22T11:46:21.564Z,9.90
2017-11-22T11:48:48.581Z,9.10
2017-11-22T11:51:15.784Z,9.97
2017-11-22T11:53:42.773Z,10.10
2017-11-22T11:56:09.982Z,9.70
2017-11-22T11:58:36.906Z,9.40
2017-11-22T12:01:04.947Z,10.77
2017-11-22T12:03:32.882Z,10.00
2017-11-22T12:05:59.825Z,9.90
2017-11-22T12:08:26.714Z,10.47
2017-11-22T12:10:54.125Z,10.30
2017-11-22T12:13:23.088Z,9.67
2017-11-22T12:15:50.059Z,8.60
2017-11-22T12:18:17.107Z,9.33
2017-11-22T12:21:06.168Z,10.63
2017-11-22T12:23:41.471Z,9.00
2017-11-22T12:26:15.988Z,9.33
2017-11-22T12:28:49.372Z,10.17
2017-11-22T12:31:16.860Z,10.10
2017-11-22T12:33:47.270Z,10.40
2017-11-22T12:36:15.444Z,8.43
2017-11-22T12:38:46.696Z,9.10
2017-11-22T12:41:14.524Z,9.17
2017-11-22T12:43:41.499Z,8.80
2017-11-22T12:46:08.393Z,8.63
2017-11-22T12:48:35.381Z,9.10
2017-11-22T12:51:02.283Z,10.10
2017-11-22T12:53:30.782Z,9.60
2017-11-22T12:56:06.155Z,8.83
2017-11-22T12:58:33.093Z,9.80
2017-11-22T13:01:01.097Z,9.07
2017-11-22T13:03:34.823Z,7.97
2017-11-22T13:06:02.039Z,8.47
2017-11-22T13:08:43.947Z,8.13
2017-11-22T13:11:24.076Z,9.03
2017-11-22T13:13:58.908Z,10.47
2017-11-22T13:16:35.851Z,10.20
2017-11-22T13:19:11.651Z,8.30
2017-11-22T13:21:48.022Z,10.23
2017-11-22T13:24:17.414Z,7.70
2017-11-22T13:26:55.749Z,7.50
2017-11-22T13:29:29.822Z,7.63
2017-11-22T13:34:28.699Z,9.30
2017-11-22T13:36:56.423Z,8.73
2017-11-22T13:39:24.529Z,7.33
2017-11-22T13:44:32.821Z,9.10
2017-11-22T13:47:12.709Z,8.50
2017-11-22T13:49:40.621Z,7.37
2017-11-22T13:52:14.064Z,6.17
2017-11-22T13:54:46.118Z,6.93
2017-11-22T13:59:56.888Z,5.80
2017-11-22T14:02:31.471Z,5.63
2017-11-22T14:04:58.499Z,6.37
2017-11-22T14:07:25.548Z,6.23
2017-11-22T14:09:53.358Z,6.20
2017-11-22T14:12:20.338Z,6.57
2017-11-22T14:14:54.198Z,5.33
2017-11-22T14:17:22.164Z,6.07
2017-11-22T14:19:49.194Z,6.80
2017-11-22T14:22:16.180Z,5.33
2017-11-22T14:24:43.320Z,5.97
2017-11-22T14:27:10.362Z,6.10
2017-11-22T14:29:37.502Z,5.43
2017-11-22T14:32:04.897Z,6.17
2017-11-22T14:34:32.928Z,6.33
2017-11-22T14:37:01.100Z,5.70
2017-11-22T14:39:28.280Z,5.10
2017-11-22T14:41:55.524Z,6.30
2017-11-22T14:44:22.528Z,6.10
2017-11-22T14:46:49.792Z,5.70
2017-11-22T14:49:17.555Z,5.10
2017-11-22T14:51:44.571Z,5.00
2017-11-22T14:54:11.756Z,6.50
2017-11-22T14:56:39.493Z,5.97
2017-11-22T14:59:06.484Z,5.50
2017-11-22T15:01:33.557Z,6.57
2017-11-22T15:04:00.622Z,6.27
2017-11-22T15:06:27.693Z,5.60
2017-11-22T15:08:55.470Z,5.10
2017-11-22T15:11:22.509Z,4.90
2017-11-22T15:13:49.483Z,5.20
2017-11-22T15:16:16.558Z,5.27
2017-11-22T15:18:43.590Z,5.87
2017-11-22T15:21:11.322Z,5.83
2017-11-22T15:23:38.374Z,5.93
2017-11-22T15:26:05.391Z,5.70
2017-11-22T15:28:32.440Z,6.20
2017-11-22T15:30:59.548Z,5.17
2017-11-22T15:33:26.577Z,5.20
2017-11-22T15:35:53.594Z,5.00
2017-11-22T15:38:20.646Z,6.40
2017-11-22T15:40:47.595Z,5.77
2017-11-22T15:43:14.580Z,6.17
2017-11-22T15:45:41.499Z,5.23
2017-11-22T15:48:08.365Z,5.17
2017-11-22T15:50:35.341Z,6.00
2017-11-22T15:53:02.230Z,5.57
2017-11-22T15:55:29.198Z,5.90
2017-11-22T15:57:56.245Z,4.87
2017-11-22T16:00:23.893Z,5.37
2017-11-22T16:02:50.834Z,5.70
2017-11-22T16:05:17.762Z,5.67
2017-11-22T16:07:44.973Z,5.40
2017-11-22T16:10:12.722Z,5.70
2017-11-22T16:12:40.403Z,5.90
2017-11-22T16:15:08.040Z,5.90
2017-11-22T16:17:35.052Z,5.53
2017-11-22T16:20:01.984Z,4.97
2017-11-22T16:22:28.889Z,5.20
2017-11-22T16:24:55.877Z,4.97
2017-11-22T16:27:22.771Z,7.20
2017-11-22T16:29:49.732Z,6.00
2017-11-22T16:32:17.382Z,5.70
2017-11-22T16:34:44.360Z,5.70
2017-11-22T16:37:11.270Z,5.93
2017-11-22T16:39:38.278Z,6.60
2017-11-22T16:42:05.243Z,5.33
2017-11-22T16:44:32.195Z,5.80
2017-11-22T16:46:59.167Z,5.83
2017-11-22T16:49:26.183Z,5.67
2017-11-22T16:51:53.140Z,5.93
2017-11-22T16:54:20.114Z,7.23
2017-11-22T16:56:47.841Z,5.67
2017-11-22T16:59:14.821Z,5.17
2017-11-22T17:01:41.833Z,5.33
2017-11-22T17:04:08.883Z,6.20
2017-11-22T17:06:35.858Z,5.60
2017-11-22T17:09:03.081Z,6.40
2017-11-22T17:11:30.061Z,8.63
2017-11-22T17:13:57.008Z,9.17
2017-11-22T17:16:23.965Z,7.97
2017-11-22T17:18:51.705Z,6.27
2017-11-22T17:21:32.637Z,6.70
2017-11-22T17:24:01.378Z,7.07
2017-11-22T17:26:28.526Z,7.40
2017-11-22T17:28:55.585Z,7.30
2017-11-22T17:31:22.577Z,8.40
2017-11-22T17:33:51.823Z,8.53
2017-11-22T17:36:18.946Z,7.87
2017-11-22T17:38:45.933Z,7.60
2017-11-22T17:41:18.819Z,8.07
2017-11-22T17:43:47.405Z,10.60
2017-11-22T17:46:14.824Z,11.37
2017-11-22T17:48:42.386Z,10.90
2017-11-22T17:51:09.428Z,7.60
2017-11-22T17:53:36.351Z,10.77
2017-11-22T17:56:05.613Z,8.10
2017-11-22T17:58:37.395Z,9.10
2017-11-22T18:01:04.472Z,9.27
2017-11-22T18:03:31.528Z,7.87
2017-11-22T18:05:58.917Z,9.20
2017-11-22T18:08:26.005Z,7.97
2017-11-22T18:10:52.953Z,9.73
2017-11-22T18:13:19.948Z,9.00
2017-11-22T18:15:47.122Z,8.57
2017-11-22T18:18:14.097Z,8.47
2017-11-22T18:20:47.504Z,8.67
2017-11-22T18:23:15.875Z,8.93
2017-11-22T18:25:43.242Z,8.77
2017-11-22T18:28:10.746Z,9.20
2017-11-22T18:30:38.448Z,7.70
2017-11-22T18:33:16.729Z,8.20
2017-11-22T18:35:57.916Z,7.83
2017-11-22T18:38:25.934Z,11.70
2017-11-22T18:40:53.376Z,10.90
2017-11-22T18:43:20.549Z,9.50
2017-11-22T18:45:47.665Z,10.17
2017-11-22T18:48:15.231Z,10.63
2017-11-22T18:50:56.497Z,11.20
2017-11-22T18:53:34.201Z,9.83
2017-11-22T18:56:15.698Z,9.17
2017-11-22T18:58:43.934Z,9.10
2017-11-22T19:01:11.089Z,9.17
2017-11-22T19:03:47.080Z,9.77
2017-11-22T19:06:28.315Z,8.67
2017-11-22T19:09:07.823Z,10.00
2017-11-22T19:11:45.352Z,8.93
2017-11-22T19:14:22.781Z,9.90
2017-11-22T19:16:59.139Z,11.40
2017-11-22T19:19:26.874Z,9.57
2017-11-22T19:21:56.046Z,10.93
2017-11-22T19:24:37.120Z,11.83
2017-11-22T19:27:05.973Z,11.83
2017-11-22T19:29:33.534Z,10.43
2017-11-22T19:32:01.273Z,10.77
2017-11-22T19:34:29.499Z,9.77
2017-11-22T19:37:04.608Z,10.68
2017-11-22T19:39:42.985Z,10.30
2017-11-22T19:42:11.921Z,11.80
2017-11-22T19:44:39.212Z,11.00
2017-11-22T19:47:06.325Z,11.03
2017-11-22T19:49:35.104Z,12.93
2017-11-22T19:52:02.069Z,15.43
2017-11-22T19:54:29.750Z,15.85
2017-11-22T19:56:56.811Z,16.03
2017-11-22T19:59:23.802Z,9.55
2017-11-22T20:01:50.809Z,11.75
2017-11-22T20:04:17.914Z,15.25
2017-11-22T20:06:57.669Z,13.60
2017-11-22T20:09:25.288Z,14.35
2017-11-22T20:11:52.275Z,13.48
2017-11-22T20:14:19.962Z,13.80
2017-11-22T20:16:46.957Z,16.00
2017-11-22T20:19:13.966Z,12.70
2017-11-22T20:21:40.909Z,16.05
2017-11-22T20:24:07.900Z,15.55
2017-11-22T20:26:36.115Z,15.57
2017-11-22T20:29:03.171Z,19.60
2017-11-22T20:31:30.884Z,15.70
2017-11-22T20:33:58.009Z,15.93
2017-11-22T20:36:25.117Z,16.87
2017-11-22T20:38:53.024Z,17.25
2017-11-22T20:41:21.164Z,17.47
2017-11-22T20:43:49.243Z,16.65
2017-11-22T20:46:16.925Z,14.43
2017-11-22T20:48:43.939Z,15.45
2017-11-22T20:51:10.942Z,16.53
2017-11-22T20:53:38.992Z,17.60
2017-11-22T20:56:07.073Z,20.58
2017-11-22T20:58:34.916Z,20.00
2017-11-22T21:01:02.258Z,16.73
2017-11-22T21:03:29.697Z,20.65
2017-11-22T21:05:56.841Z,14.93
2017-11-22T21:08:23.939Z,13.70
2017-11-22T21:10:51.327Z,14.60
2017-11-22T21:13:19.257Z,13.80
2017-11-22T21:15:50.261Z,14.57
2017-11-22T21:18:24.502Z,14.23
2017-11-22T21:20:52.997Z,12.73
2017-11-22T21:23:25.171Z,13.73
2017-11-22T21:25:53.275Z,13.10
2017-11-22T21:28:22.372Z,14.05
2017-11-22T21:30:49.333Z,13.23
2017-11-22T21:33:19.085Z,13.70
2017-11-22T21:35:50.534Z,14.35
2017-11-22T21:38:20.755Z,14.15
2017-11-22T21:40:47.845Z,14.35
2017-11-22T21:43:14.789Z,14.32
2017-11-22T21:45:41.682Z,16.35
2017-11-22T21:48:08.645Z,14.63
2017-11-22T21:50:46.869Z,13.95
2017-11-22T21:53:27.165Z,17.73
2017-11-22T21:55:56.653Z,18.02
2017-11-22T21:58:24.709Z,16.48
2017-11-22T22:00:52.593Z,15.15
2017-11-22T22:03:19.499Z,15.55
2017-11-22T22:05:46.452Z,14.80
2017-11-22T22:08:14.301Z,14.07
2017-11-22T22:10:41.641Z,14.75
2017-11-22T22:13:11.036Z,15.32
2017-11-22T22:15:38.086Z,16.90
2017-11-22T22:18:05.359Z,15.60
2017-11-22T22:20:32.561Z,16.48
2017-11-22T22:22:59.741Z,15.73
2017-11-22T22:25:26.687Z,15.85
2017-11-22T22:27:53.710Z,16.37
2017-11-22T22:30:20.717Z,15.27
2017-11-22T22:32:47.961Z,17.00
2017-11-22T22:35:15.783Z,15.63
2017-11-22T22:37:43.077Z,14.27
2017-11-22T22:40:10.405Z,11.90
2017-11-22T22:42:37.309Z,11.38
2017-11-22T22:45:04.437Z,9.47
2017-11-22T22:47:31.684Z,7.03
2017-11-22T22:49:59.006Z,7.55
2017-11-22T22:52:26.271Z,7.35
2017-11-22T22:54:53.602Z,7.60
2017-11-22T22:57:20.665Z,6.62
2017-11-22T22:59:47.589Z,6.90
2017-11-22T23:02:14.897Z,7.22
2017-11-22T23:04:41.868Z,7.72
2017-11-22T23:07:08.857Z,8.05
2017-11-22T23:09:35.819Z,9.88
2017-11-22T23:12:02.803Z,7.57
2017-11-22T23:14:29.727Z,7.43
2017-11-22T23:16:56.694Z,7.43
2017-11-22T23:19:23.733Z,8.88
2017-11-22T23:21:50.669Z,8.10
2017-11-22T23:24:17.592Z,7.30
2017-11-22T23:26:44.574Z,6.33
2017-11-22T23:29:11.474Z,6.65
2017-11-22T23:31:38.378Z,7.50
2017-11-22T23:34:05.345Z,7.30
2017-11-22T23:36:33.040Z,6.50
2017-11-22T23:38:59.977Z,7.27
2017-11-22T23:41:26.885Z,7.83
2017-11-22T23:43:54.594Z,6.45
2017-11-22T23:46:21.560Z,5.97
2017-11-22T23:48:48.459Z,7.37
2017-11-22T23:51:16.242Z,6.75
2017-11-22T23:53:43.246Z,7.30
2017-11-22T23:56:19.555Z,6.30
2017-11-22T23:59:01.959Z,6.60
